sensor_id;sensor_type;location;lat;lon;timestamp;P1;durP1;ratioP1;P2;durP2;ratioP2
3068;SDS011;1545;51.728;8.796;2023-04-15T00:01:50;21.97;;;14.17;;
3068;SDS011;1545;51.728;8.796;2023-04-15T00:04:16;24.97;;;14.80;;
3068;SDS011;1545;51.728;8.796;2023-04-15T00:06:41;27.23;;;15.73;;
3068;SDS011;1545;51.728;8.796;2023-04-15T00:09:07;26.27;;;15.20;;
3068;SDS011;1545;51.728;8.796;2023-04-15T00:11:32;23.33;;;14.73;;
3068;SDS011;1545;51.728;8.796;2023-04-15T00:13:58;24.17;;;14.67;;
3068;SDS011;1545;51.728;8.796;2023-04-15T00:16:24;25.63;;;14.43;;
3068;SDS011;1545;51.728;8.796;2023-04-15T00:18:49;32.83;;;14.93;;
3068;SDS011;1545;51.728;8.796;2023-04-15T00:21:15;22.13;;;13.60;;
3068;SDS011;1545;51.728;8.796;2023-04-15T00:23:41;28.13;;;14.47;;
3068;SDS011;1545;51.728;8.796;2023-04-15T00:26:09;23.97;;;14.37;;
3068;SDS011;1545;51.728;8.796;2023-04-15T00:28:35;23.30;;;14.50;;
3068;SDS011;1545;51.728;8.796;2023-04-15T00:31:00;27.53;;;15.13;;
3068;SDS011;1545;51.728;8.796;2023-04-15T00:33:26;23.87;;;14.57;;
3068;SDS011;1545;51.728;8.796;2023-04-15T00:35:51;28.50;;;14.70;;
3068;SDS011;1545;51.728;8.796;2023-04-15T00:38:17;25.90;;;15.20;;
3068;SDS011;1545;51.728;8.796;2023-04-15T00:40:43;26.60;;;14.60;;
3068;SDS011;1545;51.728;8.796;2023-04-15T00:43:09;23.47;;;14.50;;
3068;SDS011;1545;51.728;8.796;2023-04-15T00:45:34;23.70;;;15.07;;
3068;SDS011;1545;51.728;8.796;2023-04-15T00:48:00;25.73;;;15.43;;
3068;SDS011;1545;51.728;8.796;2023-04-15T00:50:26;23.37;;;14.37;;
3068;SDS011;1545;51.728;8.796;2023-04-15T00:52:51;24.87;;;14.57;;
3068;SDS011;1545;51.728;8.796;2023-04-15T00:55:17;23.70;;;15.30;;
3068;SDS011;1545;51.728;8.796;2023-04-15T00:57:43;22.30;;;14.37;;
3068;SDS011;1545;51.728;8.796;2023-04-15T01:00:08;22.73;;;14.10;;
3068;SDS011;1545;51.728;8.796;2023-04-15T01:02:35;23.57;;;14.53;;
3068;SDS011;1545;51.728;8.796;2023-04-15T01:05:02;24.97;;;14.43;;
3068;SDS011;1545;51.728;8.796;2023-04-15T01:07:31;21.20;;;13.73;;
3068;SDS011;1545;51.728;8.796;2023-04-15T01:09:57;21.53;;;13.40;;
3068;SDS011;1545;51.728;8.796;2023-04-15T01:12:23;24.33;;;13.33;;
3068;SDS011;1545;51.728;8.796;2023-04-15T01:14:51;22.23;;;13.53;;
3068;SDS011;1545;51.728;8.796;2023-04-15T01:17:18;20.10;;;13.43;;
3068;SDS011;1545;51.728;8.796;2023-04-15T01:19:46;20.97;;;13.40;;
3068;SDS011;1545;51.728;8.796;2023-04-15T01:22:12;21.47;;;14.20;;
3068;SDS011;1545;51.728;8.796;2023-04-15T01:24:38;21.17;;;13.33;;
3068;SDS011;1545;51.728;8.796;2023-04-15T01:27:04;23.47;;;14.67;;
3068;SDS011;1545;51.728;8.796;2023-04-15T01:29:30;30.97;;;14.43;;
3068;SDS011;1545;51.728;8.796;2023-04-15T01:31:57;25.67;;;15.03;;
3068;SDS011;1545;51.728;8.796;2023-04-15T01:34:22;26.43;;;14.60;;
3068;SDS011;1545;51.728;8.796;2023-04-15T01:36:48;24.53;;;15.73;;
3068;SDS011;1545;51.728;8.796;2023-04-15T01:39:14;27.23;;;15.33;;
3068;SDS011;1545;51.728;8.796;2023-04-15T01:41:39;30.73;;;16.87;;
3068;SDS011;1545;51.728;8.796;2023-04-15T01:44:06;30.30;;;17.67;;
3068;SDS011;1545;51.728;8.796;2023-04-15T01:46:32;32.37;;;18.27;;
3068;SDS011;1545;51.728;8.796;2023-04-15T01:48:58;31.53;;;17.53;;
3068;SDS011;1545;51.728;8.796;2023-04-15T01:51:24;29.80;;;17.40;;
3068;SDS011;1545;51.728;8.796;2023-04-15T01:53:51;31.67;;;17.30;;
3068;SDS011;1545;51.728;8.796;2023-04-15T01:56:16;31.07;;;18.43;;
3068;SDS011;1545;51.728;8.796;2023-04-15T01:58:42;32.90;;;18.07;;
3068;SDS011;1545;51.728;8.796;2023-04-15T02:01:08;31.60;;;17.93;;
3068;SDS011;1545;51.728;8.796;2023-04-15T02:03:34;30.43;;;18.10;;
3068;SDS011;1545;51.728;8.796;2023-04-15T02:06:00;31.07;;;18.50;;
3068;SDS011;1545;51.728;8.796;2023-04-15T02:08:25;33.60;;;18.87;;
3068;SDS011;1545;51.728;8.796;2023-04-15T02:10:50;36.40;;;19.33;;
3068;SDS011;1545;51.728;8.796;2023-04-15T02:13:16;32.43;;;17.63;;
3068;SDS011;1545;51.728;8.796;2023-04-15T02:15:48;30.07;;;17.90;;
3068;SDS011;1545;51.728;8.796;2023-04-15T02:18:15;27.63;;;17.37;;
3068;SDS011;1545;51.728;8.796;2023-04-15T02:20:40;31.20;;;18.07;;
3068;SDS011;1545;51.728;8.796;2023-04-15T02:23:07;32.33;;;18.27;;
3068;SDS011;1545;51.728;8.796;2023-04-15T02:25:33;38.97;;;19.13;;
3068;SDS011;1545;51.728;8.796;2023-04-15T02:27:59;34.80;;;19.43;;
3068;SDS011;1545;51.728;8.796;2023-04-15T02:30:24;31.90;;;18.93;;
3068;SDS011;1545;51.728;8.796;2023-04-15T02:32:51;30.33;;;18.23;;
3068;SDS011;1545;51.728;8.796;2023-04-15T02:35:16;35.93;;;18.43;;
3068;SDS011;1545;51.728;8.796;2023-04-15T02:37:43;32.40;;;18.17;;
3068;SDS011;1545;51.728;8.796;2023-04-15T02:40:10;28.50;;;16.90;;
3068;SDS011;1545;51.728;8.796;2023-04-15T02:42:36;31.03;;;18.07;;
3068;SDS011;1545;51.728;8.796;2023-04-15T02:45:03;34.00;;;18.20;;
3068;SDS011;1545;51.728;8.796;2023-04-15T02:47:29;29.67;;;17.40;;
3068;SDS011;1545;51.728;8.796;2023-04-15T02:49:54;29.60;;;18.33;;
3068;SDS011;1545;51.728;8.796;2023-04-15T02:52:20;30.17;;;18.07;;
3068;SDS011;1545;51.728;8.796;2023-04-15T02:54:45;30.70;;;18.27;;
3068;SDS011;1545;51.728;8.796;2023-04-15T02:57:11;26.67;;;17.07;;
3068;SDS011;1545;51.728;8.796;2023-04-15T02:59:36;26.63;;;16.67;;
3068;SDS011;1545;51.728;8.796;2023-04-15T03:02:03;31.63;;;18.33;;
3068;SDS011;1545;51.728;8.796;2023-04-15T03:04:31;31.67;;;17.60;;
3068;SDS011;1545;51.728;8.796;2023-04-15T03:06:57;29.83;;;16.40;;
3068;SDS011;1545;51.728;8.796;2023-04-15T03:09:22;27.97;;;17.87;;
3068;SDS011;1545;51.728;8.796;2023-04-15T03:11:48;30.93;;;18.63;;
3068;SDS011;1545;51.728;8.796;2023-04-15T03:14:14;35.50;;;19.33;;
3068;SDS011;1545;51.728;8.796;2023-04-15T03:16:40;32.23;;;18.53;;
3068;SDS011;1545;51.728;8.796;2023-04-15T03:19:05;29.17;;;17.73;;
3068;SDS011;1545;51.728;8.796;2023-04-15T03:21:31;28.53;;;17.93;;
3068;SDS011;1545;51.728;8.796;2023-04-15T03:23:57;29.03;;;17.93;;
3068;SDS011;1545;51.728;8.796;2023-04-15T03:26:23;34.33;;;18.77;;
3068;SDS011;1545;51.728;8.796;2023-04-15T03:28:52;32.03;;;18.53;;
3068;SDS011;1545;51.728;8.796;2023-04-15T03:31:18;32.97;;;18.47;;
3068;SDS011;1545;51.728;8.796;2023-04-15T03:33:43;29.43;;;18.27;;
3068;SDS011;1545;51.728;8.796;2023-04-15T03:36:09;32.23;;;18.00;;
3068;SDS011;1545;51.728;8.796;2023-04-15T03:38:34;29.10;;;18.43;;
3068;SDS011;1545;51.728;8.796;2023-04-15T03:41:00;26.93;;;17.00;;
3068;SDS011;1545;51.728;8.796;2023-04-15T03:43:26;28.53;;;16.97;;
3068;SDS011;1545;51.728;8.796;2023-04-15T03:45:51;30.20;;;18.27;;
3068;SDS011;1545;51.728;8.796;2023-04-15T03:48:17;31.50;;;17.90;;
3068;SDS011;1545;51.728;8.796;2023-04-15T03:50:42;28.00;;;17.93;;
3068;SDS011;1545;51.728;8.796;2023-04-15T03:53:08;31.97;;;18.00;;
3068;SDS011;1545;51.728;8.796;2023-04-15T03:55:33;30.40;;;18.00;;
3068;SDS011;1545;51.728;8.796;2023-04-15T03:57:59;34.83;;;19.67;;
3068;SDS011;1545;51.728;8.796;2023-04-15T04:00:24;33.20;;;18.80;;
3068;SDS011;1545;51.728;8.796;2023-04-15T04:02:50;32.70;;;19.93;;
3068;SDS011;1545;51.728;8.796;2023-04-15T04:05:15;37.70;;;19.07;;
3068;SDS011;1545;51.728;8.796;2023-04-15T04:07:41;31.53;;;18.53;;
3068;SDS011;1545;51.728;8.796;2023-04-15T04:10:06;31.67;;;19.30;;
3068;SDS011;1545;51.728;8.796;2023-04-15T04:12:32;33.57;;;19.93;;
3068;SDS011;1545;51.728;8.796;2023-04-15T04:14:57;35.20;;;19.97;;
3068;SDS011;1545;51.728;8.796;2023-04-15T04:17:23;33.83;;;20.20;;
3068;SDS011;1545;51.728;8.796;2023-04-15T04:19:48;35.93;;;21.17;;
3068;SDS011;1545;51.728;8.796;2023-04-15T04:22:14;38.50;;;20.97;;
3068;SDS011;1545;51.728;8.796;2023-04-15T04:24:40;45.97;;;22.27;;
3068;SDS011;1545;51.728;8.796;2023-04-15T04:27:05;45.87;;;24.10;;
3068;SDS011;1545;51.728;8.796;2023-04-15T04:29:31;47.13;;;24.20;;
3068;SDS011;1545;51.728;8.796;2023-04-15T04:31:56;41.47;;;23.70;;
3068;SDS011;1545;51.728;8.796;2023-04-15T04:34:22;39.33;;;22.87;;
3068;SDS011;1545;51.728;8.796;2023-04-15T04:36:47;57.83;;;31.07;;
3068;SDS011;1545;51.728;8.796;2023-04-15T04:39:13;65.97;;;34.80;;
3068;SDS011;1545;51.728;8.796;2023-04-15T04:41:38;77.90;;;37.67;;
3068;SDS011;1545;51.728;8.796;2023-04-15T04:44:04;93.40;;;44.33;;
3068;SDS011;1545;51.728;8.796;2023-04-15T04:46:29;114.27;;;47.40;;
3068;SDS011;1545;51.728;8.796;2023-04-15T04:48:55;58.40;;;27.53;;
3068;SDS011;1545;51.728;8.796;2023-04-15T04:51:20;72.83;;;37.57;;
3068;SDS011;1545;51.728;8.796;2023-04-15T04:53:46;79.37;;;37.93;;
3068;SDS011;1545;51.728;8.796;2023-04-15T04:56:11;105.80;;;47.60;;
3068;SDS011;1545;51.728;8.796;2023-04-15T04:58:36;133.13;;;55.77;;
3068;SDS011;1545;51.728;8.796;2023-04-15T05:01:02;147.33;;;61.97;;
3068;SDS011;1545;51.728;8.796;2023-04-15T05:03:28;150.23;;;64.13;;
3068;SDS011;1545;51.728;8.796;2023-04-15T05:05:53;143.70;;;61.83;;
3068;SDS011;1545;51.728;8.796;2023-04-15T05:08:19;145.53;;;59.63;;
3068;SDS011;1545;51.728;8.796;2023-04-15T05:10:44;125.77;;;55.33;;
3068;SDS011;1545;51.728;8.796;2023-04-15T05:13:10;122.97;;;54.27;;
3068;SDS011;1545;51.728;8.796;2023-04-15T05:15:36;124.07;;;56.40;;
3068;SDS011;1545;51.728;8.796;2023-04-15T05:18:03;129.83;;;56.77;;
3068;SDS011;1545;51.728;8.796;2023-04-15T05:20:29;138.90;;;58.13;;
3068;SDS011;1545;51.728;8.796;2023-04-15T05:22:54;128.00;;;56.80;;
3068;SDS011;1545;51.728;8.796;2023-04-15T05:25:20;118.90;;;54.70;;
3068;SDS011;1545;51.728;8.796;2023-04-15T05:27:46;132.87;;;55.77;;
3068;SDS011;1545;51.728;8.796;2023-04-15T05:30:11;127.83;;;55.77;;
3068;SDS011;1545;51.728;8.796;2023-04-15T05:32:37;131.60;;;56.03;;
3068;SDS011;1545;51.728;8.796;2023-04-15T05:35:02;105.13;;;50.37;;
3068;SDS011;1545;51.728;8.796;2023-04-15T05:37:28;106.60;;;47.77;;
3068;SDS011;1545;51.728;8.796;2023-04-15T05:39:54;105.07;;;47.17;;
3068;SDS011;1545;51.728;8.796;2023-04-15T05:42:19;93.93;;;46.00;;
3068;SDS011;1545;51.728;8.796;2023-04-15T05:44:45;97.57;;;44.80;;
3068;SDS011;1545;51.728;8.796;2023-04-15T05:47:10;80.53;;;40.60;;
3068;SDS011;1545;51.728;8.796;2023-04-15T05:49:36;76.37;;;37.50;;
3068;SDS011;1545;51.728;8.796;2023-04-15T05:52:01;72.07;;;35.40;;
3068;SDS011;1545;51.728;8.796;2023-04-15T05:54:27;64.97;;;33.50;;
3068;SDS011;1545;51.728;8.796;2023-04-15T05:56:53;73.17;;;36.97;;
3068;SDS011;1545;51.728;8.796;2023-04-15T05:59:18;81.00;;;38.73;;
3068;SDS011;1545;51.728;8.796;2023-04-15T06:01:44;74.47;;;37.40;;
3068;SDS011;1545;51.728;8.796;2023-04-15T06:04:10;72.17;;;35.53;;
3068;SDS011;1545;51.728;8.796;2023-04-15T06:06:36;67.30;;;32.83;;
3068;SDS011;1545;51.728;8.796;2023-04-15T06:09:02;59.77;;;29.27;;
3068;SDS011;1545;51.728;8.796;2023-04-15T06:11:28;50.57;;;27.57;;
3068;SDS011;1545;51.728;8.796;2023-04-15T06:13:53;48.40;;;26.00;;
3068;SDS011;1545;51.728;8.796;2023-04-15T06:16:18;37.27;;;22.30;;
3068;SDS011;1545;51.728;8.796;2023-04-15T06:18:44;41.23;;;22.23;;
3068;SDS011;1545;51.728;8.796;2023-04-15T06:21:09;38.37;;;22.03;;
3068;SDS011;1545;51.728;8.796;2023-04-15T06:23:35;40.00;;;22.13;;
3068;SDS011;1545;51.728;8.796;2023-04-15T06:26:01;36.73;;;22.03;;
3068;SDS011;1545;51.728;8.796;2023-04-15T06:28:27;38.30;;;21.27;;
3068;SDS011;1545;51.728;8.796;2023-04-15T06:30:52;36.47;;;21.67;;
3068;SDS011;1545;51.728;8.796;2023-04-15T06:33:19;42.10;;;22.83;;
3068;SDS011;1545;51.728;8.796;2023-04-15T06:35:44;37.03;;;22.33;;
3068;SDS011;1545;51.728;8.796;2023-04-15T06:38:11;36.80;;;22.00;;
3068;SDS011;1545;51.728;8.796;2023-04-15T06:40:36;40.50;;;23.30;;
3068;SDS011;1545;51.728;8.796;2023-04-15T06:43:02;38.47;;;23.13;;
3068;SDS011;1545;51.728;8.796;2023-04-15T06:45:28;43.30;;;23.00;;
3068;SDS011;1545;51.728;8.796;2023-04-15T06:47:54;41.20;;;23.40;;
3068;SDS011;1545;51.728;8.796;2023-04-15T06:50:19;40.70;;;23.50;;
3068;SDS011;1545;51.728;8.796;2023-04-15T06:52:45;37.53;;;22.80;;
3068;SDS011;1545;51.728;8.796;2023-04-15T06:55:11;41.67;;;23.33;;
3068;SDS011;1545;51.728;8.796;2023-04-15T06:57:36;37.37;;;22.73;;
3068;SDS011;1545;51.728;8.796;2023-04-15T07:00:02;43.10;;;23.80;;
3068;SDS011;1545;51.728;8.796;2023-04-15T07:02:29;40.57;;;22.93;;
3068;SDS011;1545;51.728;8.796;2023-04-15T07:04:55;39.83;;;23.53;;
3068;SDS011;1545;51.728;8.796;2023-04-15T07:07:20;38.73;;;22.93;;
3068;SDS011;1545;51.728;8.796;2023-04-15T07:09:46;40.33;;;23.57;;
3068;SDS011;1545;51.728;8.796;2023-04-15T07:12:12;45.57;;;25.23;;
3068;SDS011;1545;51.728;8.796;2023-04-15T07:14:37;40.60;;;23.67;;
3068;SDS011;1545;51.728;8.796;2023-04-15T07:17:03;41.43;;;24.30;;
3068;SDS011;1545;51.728;8.796;2023-04-15T07:19:28;45.83;;;24.57;;
3068;SDS011;1545;51.728;8.796;2023-04-15T07:21:53;40.50;;;23.80;;
3068;SDS011;1545;51.728;8.796;2023-04-15T07:24:19;42.30;;;24.50;;
3068;SDS011;1545;51.728;8.796;2023-04-15T07:26:47;46.73;;;26.73;;
3068;SDS011;1545;51.728;8.796;2023-04-15T07:29:12;44.60;;;25.33;;
3068;SDS011;1545;51.728;8.796;2023-04-15T07:31:38;47.70;;;26.37;;
3068;SDS011;1545;51.728;8.796;2023-04-15T07:34:05;44.90;;;26.20;;
3068;SDS011;1545;51.728;8.796;2023-04-15T07:36:31;45.10;;;25.87;;
3068;SDS011;1545;51.728;8.796;2023-04-15T07:38:56;47.93;;;27.77;;
3068;SDS011;1545;51.728;8.796;2023-04-15T07:41:22;49.87;;;27.10;;
3068;SDS011;1545;51.728;8.796;2023-04-15T07:43:47;50.37;;;28.23;;
3068;SDS011;1545;51.728;8.796;2023-04-15T07:46:13;53.50;;;27.23;;
3068;SDS011;1545;51.728;8.796;2023-04-15T07:48:39;50.37;;;27.60;;
3068;SDS011;1545;51.728;8.796;2023-04-15T07:51:05;58.57;;;30.03;;
3068;SDS011;1545;51.728;8.796;2023-04-15T07:53:30;49.43;;;28.67;;
3068;SDS011;1545;51.728;8.796;2023-04-15T07:55:57;61.23;;;28.87;;
3068;SDS011;1545;51.728;8.796;2023-04-15T07:58:22;52.10;;;27.17;;
3068;SDS011;1545;51.728;8.796;2023-04-15T08:00:48;50.43;;;28.57;;
3068;SDS011;1545;51.728;8.796;2023-04-15T08:03:14;53.80;;;28.70;;
3068;SDS011;1545;51.728;8.796;2023-04-15T08:05:40;51.87;;;28.37;;
3068;SDS011;1545;51.728;8.796;2023-04-15T08:08:05;45.40;;;25.20;;
3068;SDS011;1545;51.728;8.796;2023-04-15T08:10:31;46.07;;;24.63;;
3068;SDS011;1545;51.728;8.796;2023-04-15T08:12:56;42.67;;;24.10;;
3068;SDS011;1545;51.728;8.796;2023-04-15T08:15:22;46.63;;;25.80;;
3068;SDS011;1545;51.728;8.796;2023-04-15T08:17:47;49.67;;;25.73;;
3068;SDS011;1545;51.728;8.796;2023-04-15T08:20:13;47.97;;;26.40;;
3068;SDS011;1545;51.728;8.796;2023-04-15T08:22:39;54.03;;;28.03;;
3068;SDS011;1545;51.728;8.796;2023-04-15T08:25:04;54.47;;;27.60;;
3068;SDS011;1545;51.728;8.796;2023-04-15T08:27:30;59.10;;;29.20;;
3068;SDS011;1545;51.728;8.796;2023-04-15T08:29:56;49.60;;;26.37;;
3068;SDS011;1545;51.728;8.796;2023-04-15T08:32:21;54.47;;;27.97;;
3068;SDS011;1545;51.728;8.796;2023-04-15T08:34:47;56.20;;;28.37;;
3068;SDS011;1545;51.728;8.796;2023-04-15T08:37:12;58.47;;;28.60;;
3068;SDS011;1545;51.728;8.796;2023-04-15T08:39:39;56.40;;;30.03;;
3068;SDS011;1545;51.728;8.796;2023-04-15T08:42:06;56.90;;;28.63;;
3068;SDS011;1545;51.728;8.796;2023-04-15T08:44:40;49.00;;;26.70;;
3068;SDS011;1545;51.728;8.796;2023-04-15T08:47:08;51.10;;;26.70;;
3068;SDS011;1545;51.728;8.796;2023-04-15T08:49:38;51.10;;;26.00;;
3068;SDS011;1545;51.728;8.796;2023-04-15T08:52:05;55.80;;;27.97;;
3068;SDS011;1545;51.728;8.796;2023-04-15T08:54:31;53.73;;;26.83;;
3068;SDS011;1545;51.728;8.796;2023-04-15T08:56:58;52.03;;;26.57;;
3068;SDS011;1545;51.728;8.796;2023-04-15T08:59:23;38.83;;;20.83;;
3068;SDS011;1545;51.728;8.796;2023-04-15T09:01:49;41.30;;;20.87;;
3068;SDS011;1545;51.728;8.796;2023-04-15T09:04:16;41.73;;;20.00;;
3068;SDS011;1545;51.728;8.796;2023-04-15T09:06:41;41.13;;;19.67;;
3068;SDS011;1545;51.728;8.796;2023-04-15T09:09:07;32.93;;;16.93;;
3068;SDS011;1545;51.728;8.796;2023-04-15T09:11:32;38.87;;;18.63;;
3068;SDS011;1545;51.728;8.796;2023-04-15T09:13:58;37.97;;;18.03;;
3068;SDS011;1545;51.728;8.796;2023-04-15T09:16:24;34.43;;;17.07;;
3068;SDS011;1545;51.728;8.796;2023-04-15T09:18:49;35.67;;;16.90;;
3068;SDS011;1545;51.728;8.796;2023-04-15T09:21:16;39.40;;;17.20;;
3068;SDS011;1545;51.728;8.796;2023-04-15T09:23:55;44.27;;;18.27;;
3068;SDS011;1545;51.728;8.796;2023-04-15T09:29:03;37.83;;;17.63;;
3068;SDS011;1545;51.728;8.796;2023-04-15T09:31:33;32.63;;;15.30;;
3068;SDS011;1545;51.728;8.796;2023-04-15T09:33:59;32.37;;;16.30;;
3068;SDS011;1545;51.728;8.796;2023-04-15T09:36:25;32.20;;;15.60;;
3068;SDS011;1545;51.728;8.796;2023-04-15T09:38:54;36.30;;;15.87;;
3068;SDS011;1545;51.728;8.796;2023-04-15T09:41:21;43.10;;;16.50;;
3068;SDS011;1545;51.728;8.796;2023-04-15T09:43:48;37.13;;;17.27;;
3068;SDS011;1545;51.728;8.796;2023-04-15T09:46:13;39.47;;;18.37;;
3068;SDS011;1545;51.728;8.796;2023-04-15T09:48:39;37.23;;;18.10;;
3068;SDS011;1545;51.728;8.796;2023-04-15T09:51:04;43.77;;;18.70;;
3068;SDS011;1545;51.728;8.796;2023-04-15T09:53:32;41.80;;;18.73;;
3068;SDS011;1545;51.728;8.796;2023-04-15T09:55:59;38.20;;;18.60;;
3068;SDS011;1545;51.728;8.796;2023-04-15T09:58:27;34.63;;;16.83;;
3068;SDS011;1545;51.728;8.796;2023-04-15T10:00:57;35.77;;;17.03;;
3068;SDS011;1545;51.728;8.796;2023-04-15T10:03:27;36.97;;;17.50;;
3068;SDS011;1545;51.728;8.796;2023-04-15T10:05:55;33.17;;;16.80;;
3068;SDS011;1545;51.728;8.796;2023-04-15T10:08:23;29.23;;;15.77;;
3068;SDS011;1545;51.728;8.796;2023-04-15T10:10:53;31.60;;;15.87;;
3068;SDS011;1545;51.728;8.796;2023-04-15T10:13:25;34.23;;;16.60;;
3068;SDS011;1545;51.728;8.796;2023-04-15T10:16:00;31.83;;;15.60;;
3068;SDS011;1545;51.728;8.796;2023-04-15T10:18:33;32.13;;;17.10;;
3068;SDS011;1545;51.728;8.796;2023-04-15T10:21:00;36.73;;;16.37;;
3068;SDS011;1545;51.728;8.796;2023-04-15T10:23:26;28.47;;;15.60;;
3068;SDS011;1545;51.728;8.796;2023-04-15T10:25:52;29.23;;;15.37;;
3068;SDS011;1545;51.728;8.796;2023-04-15T10:28:19;33.23;;;16.27;;
3068;SDS011;1545;51.728;8.796;2023-04-15T10:30:47;29.53;;;15.83;;
3068;SDS011;1545;51.728;8.796;2023-04-15T10:33:13;28.93;;;15.57;;
3068;SDS011;1545;51.728;8.796;2023-04-15T10:35:41;29.13;;;15.00;;
3068;SDS011;1545;51.728;8.796;2023-04-15T10:43:38;28.47;;;14.47;;
3068;SDS011;1545;51.728;8.796;2023-04-15T10:46:04;30.87;;;15.57;;
3068;SDS011;1545;51.728;8.796;2023-04-15T10:48:30;31.50;;;15.83;;
3068;SDS011;1545;51.728;8.796;2023-04-15T10:50:56;30.80;;;15.97;;
3068;SDS011;1545;51.728;8.796;2023-04-15T10:53:26;29.60;;;14.77;;
3068;SDS011;1545;51.728;8.796;2023-04-15T10:55:53;30.43;;;15.97;;
3068;SDS011;1545;51.728;8.796;2023-04-15T10:58:19;30.17;;;15.50;;
3068;SDS011;1545;51.728;8.796;2023-04-15T11:00:49;29.97;;;16.30;;
3068;SDS011;1545;51.728;8.796;2023-04-15T11:03:37;28.10;;;15.87;;
3068;SDS011;1545;51.728;8.796;2023-04-15T11:06:05;31.43;;;16.87;;
3068;SDS011;1545;51.728;8.796;2023-04-15T11:11:18;32.00;;;16.80;;
3068;SDS011;1545;51.728;8.796;2023-04-15T11:13:50;33.93;;;17.07;;
3068;SDS011;1545;51.728;8.796;2023-04-15T11:16:16;32.60;;;16.73;;
3068;SDS011;1545;51.728;8.796;2023-04-15T11:18:42;33.63;;;17.00;;
3068;SDS011;1545;51.728;8.796;2023-04-15T11:21:23;31.47;;;16.07;;
3068;SDS011;1545;51.728;8.796;2023-04-15T11:23:49;29.63;;;16.50;;
3068;SDS011;1545;51.728;8.796;2023-04-15T11:26:15;32.47;;;16.13;;
3068;SDS011;1545;51.728;8.796;2023-04-15T11:28:41;27.10;;;15.70;;
3068;SDS011;1545;51.728;8.796;2023-04-15T11:31:10;29.47;;;15.70;;
3068;SDS011;1545;51.728;8.796;2023-04-15T11:34:01;27.83;;;15.13;;
3068;SDS011;1545;51.728;8.796;2023-04-15T11:36:27;30.47;;;15.93;;
3068;SDS011;1545;51.728;8.796;2023-04-15T11:38:54;30.87;;;15.60;;
3068;SDS011;1545;51.728;8.796;2023-04-15T11:41:21;26.17;;;14.03;;
3068;SDS011;1545;51.728;8.796;2023-04-15T11:43:47;27.07;;;14.37;;
3068;SDS011;1545;51.728;8.796;2023-04-15T11:46:14;27.30;;;14.60;;
3068;SDS011;1545;51.728;8.796;2023-04-15T11:48:41;26.40;;;14.40;;
3068;SDS011;1545;51.728;8.796;2023-04-15T11:51:11;25.27;;;13.53;;
3068;SDS011;1545;51.728;8.796;2023-04-15T11:53:45;21.70;;;12.10;;
3068;SDS011;1545;51.728;8.796;2023-04-15T11:56:19;26.10;;;12.87;;
3068;SDS011;1545;51.728;8.796;2023-04-15T11:58:52;23.97;;;13.40;;
3068;SDS011;1545;51.728;8.796;2023-04-15T12:03:56;25.20;;;13.40;;
3068;SDS011;1545;51.728;8.796;2023-04-15T12:06:24;25.20;;;13.77;;
3068;SDS011;1545;51.728;8.796;2023-04-15T12:09:11;22.23;;;12.97;;
3068;SDS011;1545;51.728;8.796;2023-04-15T12:11:39;23.93;;;13.73;;
3068;SDS011;1545;51.728;8.796;2023-04-15T12:14:08;25.83;;;13.37;;
3068;SDS011;1545;51.728;8.796;2023-04-15T12:16:52;25.30;;;13.20;;
3068;SDS011;1545;51.728;8.796;2023-04-15T12:21:56;22.43;;;12.37;;
3068;SDS011;1545;51.728;8.796;2023-04-15T12:24:26;26.70;;;12.63;;
3068;SDS011;1545;51.728;8.796;2023-04-15T12:26:55;23.90;;;13.90;;
3068;SDS011;1545;51.728;8.796;2023-04-15T12:29:28;22.13;;;13.70;;
3068;SDS011;1545;51.728;8.796;2023-04-15T12:31:55;23.00;;;13.23;;
3068;SDS011;1545;51.728;8.796;2023-04-15T12:34:32;22.97;;;12.97;;
3068;SDS011;1545;51.728;8.796;2023-04-15T12:37:00;23.37;;;13.43;;
3068;SDS011;1545;51.728;8.796;2023-04-15T12:39:28;25.50;;;14.30;;
3068;SDS011;1545;51.728;8.796;2023-04-15T12:41:56;22.30;;;13.23;;
3068;SDS011;1545;51.728;8.796;2023-04-15T12:44:23;24.17;;;14.13;;
3068;SDS011;1545;51.728;8.796;2023-04-15T12:46:49;27.07;;;14.50;;
3068;SDS011;1545;51.728;8.796;2023-04-15T12:49:16;21.97;;;13.40;;
3068;SDS011;1545;51.728;8.796;2023-04-15T12:51:44;24.23;;;14.67;;
3068;SDS011;1545;51.728;8.796;2023-04-15T12:54:11;24.27;;;14.27;;
3068;SDS011;1545;51.728;8.796;2023-04-15T12:56:36;26.43;;;14.00;;
3068;SDS011;1545;51.728;8.796;2023-04-15T12:59:02;24.57;;;14.07;;
3068;SDS011;1545;51.728;8.796;2023-04-15T13:01:27;24.37;;;14.23;;
3068;SDS011;1545;51.728;8.796;2023-04-15T13:03:53;23.23;;;14.10;;
3068;SDS011;1545;51.728;8.796;2023-04-15T13:06:18;22.47;;;13.30;;
3068;SDS011;1545;51.728;8.796;2023-04-15T13:08:44;23.47;;;14.10;;
3068;SDS011;1545;51.728;8.796;2023-04-15T13:11:09;22.93;;;14.00;;
3068;SDS011;1545;51.728;8.796;2023-04-15T13:13:35;21.53;;;13.40;;
3068;SDS011;1545;51.728;8.796;2023-04-15T13:16:01;22.70;;;13.77;;
3068;SDS011;1545;51.728;8.796;2023-04-15T13:18:26;21.00;;;13.27;;
3068;SDS011;1545;51.728;8.796;2023-04-15T13:20:52;20.40;;;13.47;;
3068;SDS011;1545;51.728;8.796;2023-04-15T13:23:19;21.70;;;13.37;;
3068;SDS011;1545;51.728;8.796;2023-04-15T13:25:44;20.13;;;12.73;;
3068;SDS011;1545;51.728;8.796;2023-04-15T13:28:10;18.77;;;12.80;;
3068;SDS011;1545;51.728;8.796;2023-04-15T13:30:36;21.50;;;12.83;;
3068;SDS011;1545;51.728;8.796;2023-04-15T13:33:02;20.17;;;12.57;;
3068;SDS011;1545;51.728;8.796;2023-04-15T13:35:28;19.93;;;12.53;;
3068;SDS011;1545;51.728;8.796;2023-04-15T13:37:53;20.23;;;12.77;;
3068;SDS011;1545;51.728;8.796;2023-04-15T13:40:20;18.77;;;12.47;;
3068;SDS011;1545;51.728;8.796;2023-04-15T13:42:45;20.87;;;13.00;;
3068;SDS011;1545;51.728;8.796;2023-04-15T13:45:11;21.93;;;13.53;;
3068;SDS011;1545;51.728;8.796;2023-04-15T13:47:36;18.03;;;12.57;;
3068;SDS011;1545;51.728;8.796;2023-04-15T13:50:02;20.37;;;13.03;;
3068;SDS011;1545;51.728;8.796;2023-04-15T13:52:28;21.20;;;12.90;;
3068;SDS011;1545;51.728;8.796;2023-04-15T13:54:53;20.60;;;12.40;;
3068;SDS011;1545;51.728;8.796;2023-04-15T13:57:19;23.47;;;14.60;;
3068;SDS011;1545;51.728;8.796;2023-04-15T13:59:44;23.97;;;14.20;;
3068;SDS011;1545;51.728;8.796;2023-04-15T14:02:10;22.53;;;13.83;;
3068;SDS011;1545;51.728;8.796;2023-04-15T14:04:36;23.70;;;14.50;;
3068;SDS011;1545;51.728;8.796;2023-04-15T14:07:02;22.47;;;13.77;;
3068;SDS011;1545;51.728;8.796;2023-04-15T14:09:27;23.07;;;13.73;;
3068;SDS011;1545;51.728;8.796;2023-04-15T14:11:53;23.40;;;13.90;;
3068;SDS011;1545;51.728;8.796;2023-04-15T14:14:19;24.23;;;14.30;;
3068;SDS011;1545;51.728;8.796;2023-04-15T14:16:44;23.90;;;14.13;;
3068;SDS011;1545;51.728;8.796;2023-04-15T14:19:10;20.93;;;14.10;;
3068;SDS011;1545;51.728;8.796;2023-04-15T14:21:35;22.37;;;14.07;;
3068;SDS011;1545;51.728;8.796;2023-04-15T14:24:01;26.10;;;15.13;;
3068;SDS011;1545;51.728;8.796;2023-04-15T14:26:26;26.53;;;14.47;;
3068;SDS011;1545;51.728;8.796;2023-04-15T14:28:52;27.67;;;14.80;;
3068;SDS011;1545;51.728;8.796;2023-04-15T14:31:18;26.27;;;14.77;;
3068;SDS011;1545;51.728;8.796;2023-04-15T14:33:43;25.47;;;14.53;;
3068;SDS011;1545;51.728;8.796;2023-04-15T14:36:10;31.73;;;16.93;;
3068;SDS011;1545;51.728;8.796;2023-04-15T14:38:36;28.97;;;16.90;;
3068;SDS011;1545;51.728;8.796;2023-04-15T14:41:05;29.40;;;15.63;;
3068;SDS011;1545;51.728;8.796;2023-04-15T14:43:31;33.20;;;17.57;;
3068;SDS011;1545;51.728;8.796;2023-04-15T14:45:57;31.17;;;17.60;;
3068;SDS011;1545;51.728;8.796;2023-04-15T14:48:23;31.47;;;17.70;;
3068;SDS011;1545;51.728;8.796;2023-04-15T14:50:48;36.63;;;19.10;;
3068;SDS011;1545;51.728;8.796;2023-04-15T14:53:14;41.07;;;20.67;;
3068;SDS011;1545;51.728;8.796;2023-04-15T14:55:39;32.37;;;18.63;;
3068;SDS011;1545;51.728;8.796;2023-04-15T14:58:06;34.27;;;18.83;;
3068;SDS011;1545;51.728;8.796;2023-04-15T15:00:34;35.10;;;18.67;;